createdAt,value
2023-03-17T00:01:03.639Z,3.00
2023-03-17T00:04:05.897Z,3.13
2023-03-17T00:07:08.324Z,3.00
2023-03-17T00:10:22.192Z,2.70
2023-03-17T00:13:24.077Z,3.30
2023-03-17T00:16:30.341Z,3.10
2023-03-17T00:19:35.168Z,2.88
2023-03-17T00:22:36.685Z,2.70
2023-03-17T00:25:42.978Z,2.53
2023-03-17T00:28:44.712Z,2.75
2023-03-17T00:31:46.455Z,2.72
2023-03-17T00:34:48.001Z,3.10
2023-03-17T00:51:16.530Z,2.78
2023-03-17T00:54:20.537Z,2.53
2023-03-17T00:57:22.623Z,2.50
2023-03-17T06:41:27.961Z,1.73
2023-03-17T06:44:29.618Z,1.40
2023-03-17T06:47:31.205Z,1.40
2023-03-17T06:50:32.919Z,1.65
2023-03-17T06:53:34.413Z,1.60
2023-03-17T06:56:35.911Z,1.35
2023-03-17T06:59:37.665Z,1.65
2023-03-17T07:02:39.156Z,1.45
2023-03-17T07:05:40.666Z,1.40
2023-03-17T07:08:42.260Z,1.30
2023-03-17T07:11:43.930Z,1.42
2023-03-17T07:14:46.000Z,1.30
2023-03-17T17:07:56.064Z,1.55
2023-03-17T17:10:57.758Z,1.75
2023-03-17T17:13:59.811Z,1.70
2023-03-17T17:17:01.364Z,1.95
2023-03-17T17:20:03.226Z,2.17
2023-03-17T17:23:06.995Z,1.90
2023-03-17T17:26:08.498Z,1.38
2023-03-17T17:29:09.975Z,1.90
2023-03-17T17:32:12.535Z,1.42
2023-03-17T17:35:15.573Z,1.70
2023-03-17T17:38:26.192Z,1.60
2023-03-17T17:44:29.304Z,1.40
2023-03-17T17:47:32.209Z,1.40
2023-03-17T17:50:34.226Z,1.30
2023-03-17T17:53:35.802Z,1.60
2023-03-17T17:56:40.080Z,1.23
2023-03-17T17:59:41.590Z,1.50
2023-03-17T18:02:43.901Z,2.00
2023-03-17T18:05:45.488Z,2.00
2023-03-17T18:08:47.067Z,1.50
2023-03-17T18:11:48.608Z,2.17
2023-03-17T18:14:50.298Z,1.75
2023-03-17T18:17:52.120Z,1.50
2023-03-17T18:20:54.256Z,1.80
2023-03-17T18:23:55.947Z,1.60
2023-03-17T18:26:57.517Z,1.52
2023-03-17T18:29:59.795Z,1.45
2023-03-17T18:33:09.125Z,1.52
2023-03-17T18:36:11.367Z,1.40
2023-03-17T18:39:12.857Z,1.40
2023-03-17T18:42:14.318Z,1.50
2023-03-17T18:45:16.488Z,1.40
2023-03-17T18:48:19.150Z,1.42
2023-03-17T18:51:20.653Z,1.50
2023-03-17T18:54:22.851Z,1.50
2023-03-17T18:57:24.309Z,1.33
2023-03-17T19:00:26.892Z,1.08
2023-03-17T19:03:29.322Z,1.40
2023-03-17T19:06:31.451Z,1.27
2023-03-17T19:09:33.306Z,1.40
2023-03-17T19:12:34.831Z,1.30
2023-03-17T19:15:36.341Z,1.70
2023-03-17T19:18:41.936Z,1.20
2023-03-17T19:21:43.617Z,0.93
2023-03-17T19:24:45.981Z,1.48
2023-03-17T19:27:47.432Z,2.13
2023-03-17T19:30:48.989Z,2.10
2023-03-17T19:33:51.538Z,2.13
2023-03-17T19:36:53.274Z,1.90
2023-03-17T19:39:54.716Z,2.13
2023-03-17T19:42:56.565Z,1.88
2023-03-17T19:45:58.171Z,1.88
2023-03-17T19:48:59.703Z,1.83
2023-03-17T19:52:01.482Z,2.00
2023-03-17T19:55:04.086Z,1.98
2023-03-17T19:58:08.156Z,1.70
2023-03-17T20:01:09.709Z,1.50
2023-03-17T20:04:13.955Z,2.67
2023-03-17T20:07:15.715Z,2.78
2023-03-17T20:10:17.314Z,2.63
2023-03-17T20:13:18.762Z,2.28
2023-03-17T20:16:20.250Z,2.40
2023-03-17T20:19:21.787Z,2.40
2023-03-17T20:22:23.335Z,2.22
2023-03-17T20:25:24.893Z,2.60
2023-03-17T20:28:28.283Z,2.53
2023-03-17T20:31:31.943Z,2.72
2023-03-17T20:34:34.588Z,2.30
2023-03-17T20:37:37.167Z,2.00
2023-03-17T20:40:39.314Z,2.35
2023-03-17T20:43:41.689Z,2.35
2023-03-17T20:46:44.316Z,2.10
2023-03-17T20:49:47.520Z,2.10
2023-03-17T20:52:49.670Z,2.13
2023-03-17T20:55:51.176Z,2.20
2023-03-17T20:58:53.156Z,2.10
2023-03-17T21:01:54.734Z,2.35
2023-03-17T21:04:56.397Z,2.00
2023-03-17T21:07:58.003Z,2.13
2023-03-17T21:11:01.114Z,1.95
2023-03-17T21:14:04.283Z,1.83
2023-03-17T21:17:06.400Z,1.98
2023-03-17T21:20:09.949Z,1.90
2023-03-17T21:23:11.769Z,2.20
2023-03-17T21:26:14.253Z,2.70
2023-03-17T21:29:15.690Z,2.63
2023-03-17T21:32:17.210Z,2.22
2023-03-17T21:35:19.151Z,2.40
2023-03-17T21:38:20.710Z,2.22
2023-03-17T21:41:33.385Z,2.58
2023-03-17T21:44:34.847Z,2.35
2023-03-17T21:47:36.369Z,2.10
2023-03-17T21:50:38.422Z,2.38
2023-03-17T21:53:39.928Z,1.83
2023-03-17T21:56:41.834Z,2.20
2023-03-17T21:59:43.390Z,2.20
2023-03-17T22:02:44.958Z,2.40
2023-03-17T22:05:47.137Z,2.08
2023-03-17T22:08:50.454Z,2.00
2023-03-17T22:11:51.994Z,1.65
2023-03-17T22:14:57.937Z,2.35
2023-03-17T22:17:59.896Z,1.95
2023-03-17T22:21:01.677Z,1.60
2023-03-17T22:24:03.218Z,2.33
2023-03-17T22:27:05.827Z,1.80
2023-03-17T22:30:07.784Z,1.77
2023-03-17T22:33:10.396Z,1.58
2023-03-17T22:36:11.998Z,1.85
2023-03-17T22:39:14.129Z,1.73
2023-03-17T22:42:15.617Z,1.60
2023-03-17T22:45:17.191Z,1.60
2023-03-17T22:48:18.648Z,1.70
2023-03-17T22:51:22.941Z,1.60
2023-03-17T22:54:24.369Z,1.50
2023-03-17T22:57:25.868Z,1.45
2023-03-17T23:00:27.510Z,1.55
2023-03-17T23:03:29.934Z,1.65
2023-03-17T23:06:31.692Z,1.45
2023-03-17T23:09:34.066Z,1.65
2023-03-17T23:12:36.468Z,1.55
2023-03-17T23:15:38.546Z,1.50
2023-03-17T23:18:40.917Z,1.60
2023-03-17T23:21:42.394Z,1.33
2023-03-17T23:24:43.918Z,1.58
2023-03-17T23:27:46.926Z,1.67
2023-03-17T23:30:48.715Z,1.40
2023-03-17T23:33:51.199Z,1.65
2023-03-17T23:36:53.248Z,1.48
2023-03-17T23:39:54.926Z,1.65
2023-03-17T23:42:56.411Z,1.27
2023-03-17T23:45:58.238Z,1.38
2023-03-17T23:48:59.726Z,1.40
2023-03-17T23:52:01.726Z,1.58
2023-03-17T23:55:05.822Z,1.20
2023-03-17T23:58:07.729Z,1.50
